Time;durP1;ratioP1;P1;durP2;ratioP2;P2;SDS_P1;SDS_P2;PMS_P1;PMS_P2;Temp;Humidity;BMP_temperature;BMP_pressure;BME280_temperature;BME280_humidity;BME280_pressure;Samples;Min_cycle;Max_cycle;Signal;HPM_P1;HPM_P2
2023/01/23 00:00:29;;;;;;;3.88;2.53;;;;;;;1.80;95.92;103755.78;5034342;28;97230;-28
2023/01/23 00:02:55;;;;;;;3.03;2.30;;;;;;;1.79;95.44;103756.66;5034399;28;96833;-29
2023/01/23 00:05:21;;;;;;;5.97;3.72;;;;;;;1.78;95.27;103745.94;5035392;28;98107;-28
2023/01/23 00:07:46;;;;;;;6.65;3.40;;;;;;;1.77;95.55;103750.38;5035026;28;97075;-28
2023/01/23 00:10:11;;;;;;;4.85;2.88;;;;;;;1.76;95.40;103748.56;5035448;27;96638;-28
2023/01/23 00:12:41;;;;;;;3.17;2.30;;;;;;;1.77;95.35;103744.16;5035944;28;96751;-29
2023/01/23 00:15:08;;;;;;;3.22;1.95;;;;;;;1.73;95.73;103742.25;5033831;28;101947;-28
2023/01/23 00:17:33;;;;;;;3.75;1.98;;;;;;;1.73;95.77;103745.84;5033575;28;102209;-29
2023/01/23 00:19:59;;;;;;;2.25;1.60;;;;;;;1.76;95.41;103750.34;5033863;27;96730;-28
2023/01/23 00:22:25;;;;;;;4.05;2.47;;;;;;;1.73;95.31;103744.94;5033614;28;96893;-28
2023/01/23 00:24:50;;;;;;;3.95;1.95;;;;;;;1.77;95.82;103750.38;5034628;28;98923;-28
2023/01/23 00:27:15;;;;;;;2.10;1.38;;;;;;;1.74;95.24;103744.06;5034811;28;99679;-28
2023/01/23 00:29:41;;;;;;;3.50;2.53;;;;;;;1.73;95.31;103748.50;5035526;27;96720;-29
2023/01/23 00:32:06;;;;;;;4.20;3.03;;;;;;;1.71;95.79;103747.56;5035320;28;96736;-28
2023/01/23 00:34:31;;;;;;;2.42;1.85;;;;;;;1.76;95.64;103739.66;5035242;27;96777;-29
2023/01/23 00:36:57;;;;;;;3.05;2.42;;;;;;;1.77;95.81;103746.81;5035292;28;97766;-30
2023/01/23 00:39:22;;;;;;;4.32;2.45;;;;;;;1.75;95.04;103737.88;5035063;28;96511;-28
2023/01/23 00:41:48;;;;;;;3.55;1.77;;;;;;;1.75;95.45;103736.09;5035248;28;96759;-28
2023/01/23 00:44:15;;;;;;;2.22;1.98;;;;;;;1.74;95.64;103722.69;5032852;28;100782;-28
2023/01/23 00:46:40;;;;;;;2.40;1.58;;;;;;;1.75;95.25;103730.75;5033467;28;98751;-28
2023/01/23 00:49:06;;;;;;;1.40;1.25;;;;;;;1.78;95.55;103736.13;5035255;27;96858;-28
2023/01/23 00:51:32;;;;;;;2.00;1.67;;;;;;;1.76;95.29;103723.63;5033326;28;97004;-28
2023/01/23 00:53:58;;;;;;;1.95;1.50;;;;;;;1.75;95.06;103719.16;5034730;28;98072;-29
2023/01/23 00:56:23;;;;;;;2.72;2.13;;;;;;;1.75;95.14;103717.38;5034499;28;99863;-28
2023/01/23 00:58:48;;;;;;;1.58;1.33;;;;;;;1.75;95.25;103708.47;5035057;27;97257;-29
2023/01/23 01:01:15;;;;;;;1.58;0.98;;;;;;;1.79;94.99;103718.34;5034994;28;96768;-28
2023/01/23 01:03:41;;;;;;;1.67;1.42;;;;;;;1.75;95.50;103712.03;5033089;28;101074;-28
2023/01/23 01:06:06;;;;;;;2.38;1.23;;;;;;;1.75;95.13;103713.81;5032663;28;100924;-28
2023/01/23 01:08:32;;;;;;;1.75;1.10;;;;;;;1.78;95.30;103729.91;5034221;27;96626;-28
2023/01/23 01:10:57;;;;;;;2.38;1.65;;;;;;;1.77;95.33;103730.78;5035250;28;96775;-28
2023/01/23 01:13:23;;;;;;;2.40;2.08;;;;;;;1.74;95.33;103734.28;5034364;27;97969;-28
2023/01/23 01:15:51;;;;;;;2.88;2.03;;;;;;;1.74;95.41;103736.03;5032759;28;100693;-29
2023/01/23 01:18:17;;;;;;;6.88;2.13;;;;;;;1.74;95.18;103728.03;5033143;28;96739;-28
2023/01/23 01:20:43;;;;;;;1.73;1.42;;;;;;;1.72;95.23;103721.75;5033279;28;96769;-29
2023/01/23 01:23:09;;;;;;;3.88;1.55;;;;;;;1.71;95.17;103718.16;5033935;28;97945;-28
2023/01/23 01:25:35;;;;;;;2.08;1.33;;;;;;;1.75;95.13;103719.16;5033237;28;100499;-28
2023/01/23 01:28:00;;;;;;;3.65;2.15;;;;;;;1.74;95.22;103728.94;5033185;28;96588;-29
2023/01/23 01:30:26;;;;;;;7.18;1.73;;;;;;;1.72;95.38;103728.00;5034980;27;96749;-28
2023/01/23 01:32:53;;;;;;;2.35;1.50;;;;;;;1.73;95.16;103727.13;5037428;28;97381;-29
2023/01/23 01:35:19;;;;;;;11.32;3.28;;;;;;;1.72;95.17;103725.34;5036156;28;101093;-28
2023/01/23 01:37:44;;;;;;;10.30;4.43;;;;;;;1.70;95.50;103721.72;5036556;28;96536;-28
2023/01/23 01:40:17;;;;;;;6.50;3.20;;;;;;;1.72;95.27;103727.09;5037849;28;96469;-28
2023/01/23 01:42:47;;;;;;;3.70;1.98;;;;;;;1.70;95.67;103727.97;5036237;28;102304;-28
2023/01/23 01:45:50;;;;;;;1.90;1.10;;;;;;;1.73;95.29;103726.25;5036153;28;100774;-28
2023/01/23 01:48:18;;;;;;;1.13;0.75;;;;;;;1.74;95.73;103728.03;5038246;28;96711;-29
2023/01/23 01:50:43;;;;;;;3.28;1.80;;;;;;;1.70;95.46;103725.28;5037735;28;96775;-29
2023/01/23 01:53:10;;;;;;;4.63;1.67;;;;;;;1.70;95.56;103730.63;5037170;28;99238;-29
2023/01/23 01:55:37;;;;;;;2.63;1.73;;;;;;;1.70;95.59;103730.63;5035871;28;100710;-28
2023/01/23 01:58:02;;;;;;;1.92;1.50;;;;;;;1.72;95.54;103737.78;5035739;28;96524;-28
2023/01/23 02:00:28;;;;;;;3.60;1.83;;;;;;;1.69;95.64;103723.50;5037416;28;96730;-29
2023/01/23 02:02:57;;;;;;;5.20;2.00;;;;;;;1.72;95.30;103741.38;5037236;27;97912;-28
2023/01/23 02:05:33;;;;;;;1.15;1.05;;;;;;;1.70;95.50;103741.31;5035906;28;99755;-28
2023/01/23 02:08:03;;;;;;;2.90;2.10;;;;;;;1.73;95.66;103750.28;5036293;28;96753;-28
2023/01/23 02:10:31;;;;;;;1.42;1.08;;;;;;;1.71;95.67;103752.91;5035938;28;96806;-28
2023/01/23 02:13:19;;;;;;;2.72;2.10;;;;;;;1.70;95.82;103756.47;5035736;28;100846;-29
2023/01/23 02:15:45;;;;;;;2.15;1.17;;;;;;;1.68;95.87;103755.53;5035963;28;101403;-29
2023/01/23 02:18:11;;;;;;;1.67;1.15;;;;;;;1.69;95.62;103755.56;5037361;27;96489;-28
2023/01/23 02:20:36;;;;;;;1.80;1.65;;;;;;;1.66;95.54;103747.47;5037322;28;96742;-28
2023/01/23 02:23:40;;;;;;;3.50;2.05;;;;;;;1.70;95.67;103757.34;5035178;27;99019;-28
2023/01/23 02:26:11;;;;;;;4.65;1.23;;;;;;;1.68;95.69;103753.75;5035415;28;100864;-28
2023/01/23 02:28:40;;;;;;;2.43;1.20;;;;;;;1.69;95.94;103755.56;5035829;28;96521;-28
2023/01/23 02:31:06;;;;;;;1.60;1.23;;;;;;;1.72;95.50;103761.81;5035716;28;96599;-29
2023/01/23 02:33:32;;;;;;;2.80;1.83;;;;;;;1.73;95.50;103752.97;5035416;28;101142;-29
2023/01/23 02:35:59;;;;;;;3.05;1.48;;;;;;;1.72;95.40;103748.47;5036613;28;97825;-29
2023/01/23 02:38:30;;;;;;;1.55;1.45;;;;;;;1.70;95.74;103746.66;5035678;28;96587;-29
2023/01/23 02:40:57;;;;;;;1.77;1.40;;;;;;;1.67;95.89;103746.63;5035910;28;96769;-29
2023/01/23 02:43:27;;;;;;;1.30;1.10;;;;;;;1.72;95.77;103754.72;5017372;28;101089;-28
2023/01/23 02:45:53;;;;;;;2.20;1.60;;;;;;;1.70;95.68;103748.44;5036501;28;98617;-28
2023/01/23 02:48:19;;;;;;;3.17;1.30;;;;;;;1.72;95.86;103748.47;5035028;28;96628;-29
2023/01/23 02:50:45;;;;;;;1.73;1.08;;;;;;;1.73;96.02;103753.84;5035162;28;96778;-29
2023/01/23 02:53:11;;;;;;;2.35;1.73;;;;;;;1.72;95.56;103749.38;5036582;28;97906;-28
2023/01/23 02:55:38;;;;;;;3.88;2.28;;;;;;;1.72;95.79;103744.03;5035092;28;100741;-28
2023/01/23 03:00:47;;;;;;;3.35;1.85;;;;;;;1.69;96.23;103751.97;5036672;28;96650;-28
2023/01/23 03:03:14;;;;;;;1.75;1.48;;;;;;;1.69;96.03;103758.25;5036482;27;97276;-28
2023/01/23 03:05:40;;;;;;;2.17;1.42;;;;;;;1.68;96.19;103761.75;5036650;28;97829;-29
2023/01/23 03:08:05;;;;;;;1.67;1.27;;;;;;;1.68;96.16;103751.06;5036992;27;96548;-29
2023/01/23 03:10:30;;;;;;;2.00;1.40;;;;;;;1.70;95.88;103761.81;5036584;28;96748;-28
2023/01/23 03:13:06;;;;;;;1.88;1.67;;;;;;;1.68;95.86;103761.75;5035753;28;98472;-29
2023/01/23 03:15:32;;;;;;;3.08;1.48;;;;;;;1.69;96.48;103768.00;5036025;28;98925;-29
2023/01/23 03:17:58;;;;;;;0.93;0.88;;;;;;;1.69;96.10;103782.28;5034932;28;96492;-28
2023/01/23 03:20:23;;;;;;;2.22;1.75;;;;;;;1.69;96.05;103778.69;5036438;28;96580;-28
2023/01/23 03:22:49;;;;;;;2.65;2.00;;;;;;;1.67;95.85;103776.00;5035609;28;97949;-28
2023/01/23 03:25:16;;;;;;;2.08;1.23;;;;;;;1.66;95.99;103774.19;5035764;28;99165;-30
2023/01/23 03:27:41;;;;;;;2.75;2.20;;;;;;;1.67;96.05;103777.78;5034684;28;96665;-28
2023/01/23 03:30:14;;;;;;;1.58;1.30;;;;;;;1.69;96.14;103781.34;5036355;28;96781;-28
2023/01/23 03:32:41;;;;;;;2.05;1.58;;;;;;;1.67;96.46;103784.00;5034495;28;100803;-28
2023/01/23 03:35:19;;;;;;;4.75;2.90;;;;;;;1.67;95.93;103777.78;5034322;28;101230;-28
2023/01/23 03:37:48;;;;;;;1.88;1.58;;;;;;;1.68;96.13;103793.81;5035762;27;96549;-28
2023/01/23 03:43:05;;;;;;;3.83;2.13;;;;;;;1.68;96.55;103787.59;5036173;28;97079;-28
2023/01/23 03:45:31;;;;;;;2.60;1.95;;;;;;;1.68;96.23;103780.47;5034166;28;100973;-28
2023/01/23 03:47:56;;;;;;;2.53;1.77;;;;;;;1.68;96.19;103775.13;5034622;28;96635;-28
2023/01/23 03:50:22;;;;;;;1.58;1.33;;;;;;;1.70;96.47;103777.84;5035575;28;96495;-28
2023/01/23 03:52:47;;;;;;;3.72;1.92;;;;;;;1.68;96.30;103780.47;5035396;27;97396;-28
2023/01/23 03:55:13;;;;;;;2.42;1.65;;;;;;;1.66;96.56;103778.63;5035439;28;99057;-28
2023/01/23 03:57:38;;;;;;;2.25;1.52;;;;;;;1.64;96.42;103778.56;5035767;28;96520;-28
2023/01/23 04:00:05;;;;;;;2.00;1.20;;;;;;;1.63;96.90;103779.47;5035733;28;96753;-30
2023/01/23 04:02:31;;;;;;;2.53;1.63;;;;;;;1.65;96.81;103775.06;5033376;28;98912;-28
2023/01/23 04:04:56;;;;;;;3.47;2.55;;;;;;;1.61;96.53;103773.19;5035488;28;97674;-28
2023/01/23 04:07:22;;;;;;;2.05;1.58;;;;;;;1.62;96.43;103774.06;5035825;28;96680;-28
2023/01/23 04:09:47;;;;;;;1.63;1.30;;;;;;;1.63;96.59;103775.91;5035971;28;96534;-28
2023/01/23 04:12:13;;;;;;;2.28;1.58;;;;;;;1.63;96.70;103782.13;5035126;27;99304;-29
2023/01/23 04:14:38;;;;;;;2.03;1.73;;;;;;;1.66;96.58;103784.88;5035076;28;99207;-29
2023/01/23 04:17:05;;;;;;;2.30;1.55;;;;;;;1.68;96.50;103783.13;5035291;27;96546;-28
2023/01/23 04:19:31;;;;;;;3.28;2.10;;;;;;;1.67;96.33;103783.13;5034367;28;96899;-29
2023/01/23 04:21:56;;;;;;;2.47;1.77;;;;;;;1.64;96.43;103775.91;5034762;27;99458;-28
2023/01/23 04:24:22;;;;;;;5.13;2.28;;;;;;;1.64;96.73;103765.22;5034482;28;97773;-28
2023/01/23 04:26:47;;;;;;;3.80;2.50;;;;;;;1.65;96.82;103771.50;5034564;27;96529;-28
2023/01/23 04:29:12;;;;;;;2.03;1.63;;;;;;;1.67;96.37;103777.78;5035504;28;96702;-28
2023/01/23 04:31:38;;;;;;;3.42;2.30;;;;;;;1.61;96.80;103781.19;5035035;27;97861;-28
2023/01/23 04:34:03;;;;;;;1.98;1.45;;;;;;;1.65;96.58;103776.84;5035044;28;97878;-29
2023/01/23 04:36:28;;;;;;;2.92;1.75;;;;;;;1.64;97.19;103780.34;5034804;27;96654;-28
2023/01/23 04:38:54;;;;;;;1.25;1.13;;;;;;;1.65;96.87;103783.06;5035184;28;96806;-28
2023/01/23 04:41:23;;;;;;;3.05;1.92;;;;;;;1.66;96.63;103776.84;5034837;27;97371;-28
2023/01/23 04:43:48;;;;;;;1.13;1.05;;;;;;;1.62;96.68;103777.66;5033755;28;101214;-28
2023/01/23 04:46:13;;;;;;;2.83;1.70;;;;;;;1.63;96.96;103782.13;5034925;27;96535;-28
2023/01/23 04:48:39;;;;;;;4.65;1.80;;;;;;;1.63;96.69;103783.91;5035236;28;96726;-28
2023/01/23 04:51:04;;;;;;;1.52;1.33;;;;;;;1.64;96.90;103783.91;5033834;28;98021;-28
2023/01/23 04:53:30;;;;;;;2.08;1.63;;;;;;;1.65;97.08;103787.53;5034655;28;97429;-29
2023/01/23 04:55:55;;;;;;;3.58;1.65;;;;;;;1.65;96.86;103793.75;5035069;27;96441;-28
2023/01/23 04:58:21;;;;;;;3.20;1.85;;;;;;;1.62;96.97;103787.44;5034824;28;96456;-28
2023/01/23 05:00:46;;;;;;;1.10;1.02;;;;;;;1.62;96.97;103803.47;5034693;27;97855;-28
2023/01/23 05:03:12;;;;;;;2.60;2.13;;;;;;;1.61;96.64;103794.53;5033072;28;104092;-28
2023/01/23 05:05:38;;;;;;;2.80;2.25;;;;;;;1.64;97.07;103802.63;5033930;27;96742;-28
2023/01/23 05:08:03;;;;;;;3.05;2.05;;;;;;;1.63;97.20;103811.53;5038937;28;96758;-29
2023/01/23 05:10:29;;;;;;;1.13;1.00;;;;;;;1.66;97.42;103816.03;5038102;28;97511;-28
2023/01/23 05:12:54;;;;;;;3.08;1.88;;;;;;;1.63;97.22;103819.53;5037787;28;98916;-28
2023/01/23 05:15:20;;;;;;;2.08;1.83;;;;;;;1.63;97.32;103815.97;5037865;27;96615;-28
2023/01/23 05:17:46;;;;;;;3.22;2.17;;;;;;;1.64;97.45;103815.97;5038357;28;96731;-27
2023/01/23 05:20:11;;;;;;;2.25;1.83;;;;;;;1.63;97.33;103827.56;5037917;27;97394;-28
2023/01/23 05:22:37;;;;;;;4.47;3.13;;;;;;;1.65;97.35;103820.47;5037084;28;99057;-28
2023/01/23 05:25:03;;;;;;;5.18;2.63;;;;;;;1.66;97.47;103816.91;5036705;28;96501;-28
2023/01/23 05:27:28;;;;;;;3.17;1.77;;;;;;;1.67;97.59;103817.84;5037831;28;97278;-28
2023/01/23 05:29:54;;;;;;;4.82;2.05;;;;;;;1.66;97.15;103814.25;5037729;28;97963;-28
2023/01/23 05:32:19;;;;;;;3.28;2.15;;;;;;;1.66;96.91;103805.34;5038112;28;101256;-28
2023/01/23 05:34:44;;;;;;;2.30;2.00;;;;;;;1.66;97.27;103800.00;5038180;27;96917;-29
2023/01/23 05:37:10;;;;;;;2.13;1.73;;;;;;;1.65;97.75;103795.53;5037871;28;96592;-29
2023/01/23 05:39:35;;;;;;;5.15;2.85;;;;;;;1.66;97.66;103802.66;5037586;27;97304;-28
2023/01/23 05:42:00;;;;;;;2.33;1.90;;;;;;;1.64;97.86;103797.28;5037686;28;99079;-30
2023/01/23 05:44:27;;;;;;;2.38;1.70;;;;;;;1.69;97.50;103803.66;5037648;27;96601;-28
2023/01/23 05:46:52;;;;;;;2.00;1.65;;;;;;;1.67;97.57;103805.38;5036527;28;96763;-28
2023/01/23 05:49:18;;;;;;;2.25;1.90;;;;;;;1.67;97.47;103805.38;5037273;27;99359;-30
2023/01/23 05:51:43;;;;;;;1.45;1.30;;;;;;;1.71;97.54;103814.38;5037059;28;97988;-28
2023/01/23 05:54:09;;;;;;;4.13;2.35;;;;;;;1.69;97.70;103813.41;5037795;27;96526;-28
2023/01/23 05:56:34;;;;;;;2.65;1.52;;;;;;;1.70;97.44;103821.47;5038128;28;96959;-28
2023/01/23 05:59:00;;;;;;;2.25;1.63;;;;;;;1.69;97.61;103817.03;5037436;27;97937;-28
2023/01/23 06:01:25;;;;;;;1.23;1.10;;;;;;;1.72;97.31;103821.53;5037454;28;97920;-28
2023/01/23 06:03:50;;;;;;;2.10;1.70;;;;;;;1.70;97.33;103823.25;5036883;27;96616;-29
2023/01/23 06:06:16;;;;;;;2.45;1.98;;;;;;;1.70;97.13;103818.81;5037445;28;96765;-28
2023/01/23 06:08:41;;;;;;;2.47;1.70;;;;;;;1.68;97.51;103819.66;5036956;27;99343;-29
2023/01/23 06:11:06;;;;;;;2.90;2.08;;;;;;;1.70;97.42;103828.59;5036868;28;99333;-28
2023/01/23 06:13:32;;;;;;;3.92;1.98;;;;;;;1.68;97.12;103831.22;5037577;27;96550;-28
2023/01/23 06:15:57;;;;;;;3.17;2.50;;;;;;;1.67;97.65;103820.53;5037177;28;96768;-28
2023/01/23 06:18:23;;;;;;;2.47;1.73;;;;;;;1.67;97.60;103813.41;5037137;27;97904;-30
2023/01/23 06:20:48;;;;;;;4.22;2.97;;;;;;;1.68;97.85;103814.31;5036854;28;98418;-28
2023/01/23 06:23:14;;;;;;;4.63;2.95;;;;;;;1.67;97.84;103826.75;5036555;27;96752;-28
2023/01/23 06:25:41;;;;;;;4.45;3.38;;;;;;;1.72;97.91;103833.97;5037418;28;96944;-30
2023/01/23 06:28:07;;;;;;;5.82;3.53;;;;;;;1.68;98.00;103825.00;5034838;28;101221;-28
2023/01/23 06:30:33;;;;;;;5.55;3.70;;;;;;;1.68;98.17;103831.22;5036546;28;99167;-29
2023/01/23 06:32:58;;;;;;;2.90;2.20;;;;;;;1.69;98.03;103825.03;5037439;27;96584;-30
2023/01/23 06:35:23;;;;;;;2.45;1.90;;;;;;;1.73;97.88;103827.78;5037022;28;96692;-28
2023/01/23 06:37:49;;;;;;;2.80;2.42;;;;;;;1.72;98.19;103837.56;5035363;28;99195;-28
2023/01/23 06:40:14;;;;;;;2.00;1.67;;;;;;;1.75;97.70;103831.38;5036475;28;98695;-28
2023/01/23 06:42:41;;;;;;;2.45;1.83;;;;;;;1.73;98.02;103827.78;5037129;27;96544;-28
2023/01/23 06:45:08;;;;;;;8.57;3.53;;;;;;;1.76;97.59;103825.16;5035853;28;96814;-28
2023/01/23 06:47:33;;;;;;;11.10;5.75;;;;;;;1.76;97.81;103831.41;5036289;27;99632;-29
2023/01/23 06:50:00;;;;;;;23.73;13.70;;;;;;;1.76;97.51;103822.50;5036277;28;99126;-28
2023/01/23 06:52:26;;;;;;;22.40;8.25;;;;;;;1.77;98.35;103824.31;5035606;27;96727;-28
2023/01/23 06:54:52;;;;;;;11.40;8.15;;;;;;;1.74;98.54;103825.16;5034956;28;96935;-28
2023/01/23 06:57:17;;;;;;;6.63;4.18;;;;;;;1.77;98.10;103826.97;5035723;27;98624;-28
2023/01/23 06:59:42;;;;;;;4.10;3.13;;;;;;;1.76;97.85;103831.41;5034844;28;97777;-28
2023/01/23 07:02:09;;;;;;;6.40;3.75;;;;;;;1.76;97.75;103830.50;5036355;27;96585;-29
2023/01/23 07:04:35;;;;;;;2.00;1.52;;;;;;;1.76;97.79;103828.72;5035166;28;96470;-29
2023/01/23 07:07:00;;;;;;;5.63;2.45;;;;;;;1.76;97.83;103830.50;5036303;27;97784;-28
2023/01/23 07:09:25;;;;;;;3.45;2.38;;;;;;;1.77;97.58;103833.22;5036679;28;97308;-29
2023/01/23 07:11:51;;;;;;;3.25;2.42;;;;;;;1.74;98.15;103843.84;5035993;27;96531;-31
2023/01/23 07:14:16;;;;;;;4.55;2.42;;;;;;;1.72;98.19;103850.91;5034066;27;97220;-28
2023/01/23 07:16:41;;;;;;;3.63;2.30;;;;;;;1.73;98.39;103855.38;5033647;27;97379;-31
2023/01/23 07:19:07;;;;;;;2.63;1.95;;;;;;;1.71;98.36;103851.78;5033582;28;101710;-29
2023/01/23 07:21:32;;;;;;;10.95;2.65;;;;;;;1.72;98.65;103858.00;5034025;27;97170;-30
2023/01/23 07:23:58;;;;;;;3.92;1.90;;;;;;;1.78;98.19;103863.50;5033185;27;98600;-28
2023/01/23 07:26:23;;;;;;;3.17;1.90;;;;;;;1.75;98.54;103858.09;5033886;28;98053;-29
2023/01/23 07:28:48;;;;;;;2.15;1.63;;;;;;;1.74;98.33;103861.63;5035349;27;97760;-28
2023/01/23 07:31:15;;;;;;;4.13;2.67;;;;;;;1.73;98.05;103859.84;5036295;27;96720;-28
2023/01/23 07:33:40;;;;;;;2.63;2.13;;;;;;;1.73;97.82;103866.06;5036064;28;96824;-28
2023/01/23 07:36:06;;;;;;;6.93;3.28;;;;;;;1.72;98.30;103864.28;5035637;28;99237;-28
2023/01/23 07:38:32;;;;;;;4.55;2.17;;;;;;;1.73;98.04;103874.09;5034168;28;102555;-28
2023/01/23 07:40:58;;;;;;;2.58;2.25;;;;;;;1.69;97.72;103878.47;5035397;27;97875;-28
2023/01/23 07:43:26;;;;;;;3.70;2.67;;;;;;;1.70;97.92;103876.69;5036063;28;96741;-29
2023/01/23 07:45:52;;;;;;;4.00;2.92;;;;;;;1.74;98.22;103875.91;5035715;28;97931;-29
2023/01/23 07:48:17;;;;;;;4.03;2.40;;;;;;;1.73;97.89;103878.53;5035456;28;98783;-29
2023/01/23 07:50:43;;;;;;;2.17;1.65;;;;;;;1.73;98.28;103876.75;5036129;27;96825;-29
2023/01/23 07:53:08;;;;;;;3.08;2.55;;;;;;;1.77;98.04;103883.09;5036357;28;96751;-28
2023/01/23 07:55:37;;;;;;;3.63;1.95;;;;;;;1.77;98.37;103896.47;5035259;27;99012;-28
2023/01/23 07:58:02;;;;;;;2.83;2.05;;;;;;;1.77;98.18;103893.78;5034478;28;100856;-28
2023/01/23 08:00:28;;;;;;;4.22;2.33;;;;;;;1.74;98.35;103893.69;5035734;27;96674;-28
2023/01/23 08:02:54;;;;;;;3.35;2.00;;;;;;;1.74;98.51;103883.94;5035252;28;96806;-29
2023/01/23 08:05:19;;;;;;;5.72;3.53;;;;;;;1.74;97.97;103888.34;5034992;27;97934;-28
2023/01/23 08:07:44;;;;;;;5.97;3.88;;;;;;;1.76;98.29;103903.53;5035156;28;99210;-28
2023/01/23 08:10:10;;;;;;;7.20;3.55;;;;;;;1.73;98.20;103897.25;5035685;27;96767;-29
2023/01/23 08:12:35;;;;;;;4.22;2.13;;;;;;;1.78;98.21;103906.28;5035729;28;96726;-28
2023/01/23 08:15:01;;;;;;;2.63;2.20;;;;;;;1.77;98.02;103904.47;5035383;28;97937;-28
2023/01/23 08:17:26;;;;;;;2.95;2.22;;;;;;;1.78;98.45;103912.50;5034950;28;97400;-28
2023/01/23 08:19:51;;;;;;;3.08;1.70;;;;;;;1.81;98.11;103914.34;5035633;27;96695;-28
2023/01/23 08:22:17;;;;;;;5.20;2.10;;;;;;;1.81;97.95;103912.59;5035582;28;96747;-28
2023/01/23 08:24:42;;;;;;;2.92;2.03;;;;;;;1.78;97.82;103901.81;5034700;27;97907;-30
2023/01/23 08:27:08;;;;;;;7.22;1.92;;;;;;;1.83;97.88;103907.28;5033553;28;100736;-28
2023/01/23 08:29:33;;;;;;;10.18;3.05;;;;;;;1.82;98.07;103905.50;5034990;27;96558;-28
2023/01/23 08:31:58;;;;;;;5.63;2.20;;;;;;;1.81;97.79;103922.38;5034734;28;96852;-28
2023/01/23 08:34:24;;;;;;;5.25;3.40;;;;;;;1.82;97.44;103924.19;5035069;27;97874;-28
2023/01/23 08:36:50;;;;;;;8.13;4.03;;;;;;;1.81;98.57;103922.38;5035022;28;97960;-28
2023/01/23 08:39:16;;;;;;;2.60;1.17;;;;;;;1.81;98.17;103920.63;5035321;28;96660;-28
2023/01/23 08:41:41;;;;;;;2.35;1.80;;;;;;;1.83;98.23;103926.88;5032594;28;96810;-28
2023/01/23 08:44:07;;;;;;;2.97;1.92;;;;;;;1.86;98.42;103928.72;5034686;27;98784;-28
2023/01/23 08:46:33;;;;;;;3.85;2.88;;;;;;;1.86;98.06;103934.06;5034817;28;98875;-28
2023/01/23 08:48:58;;;;;;;4.43;2.70;;;;;;;1.86;98.42;103936.75;5035138;27;96451;-29
2023/01/23 08:51:24;;;;;;;3.17;2.22;;;;;;;1.90;98.44;103930.63;5034543;28;96908;-28
2023/01/23 08:53:52;;;;;;;3.58;1.95;;;;;;;1.91;98.50;103937.78;5032826;28;100739;-28
2023/01/23 08:56:21;;;;;;;3.78;2.60;;;;;;;1.94;98.20;103935.19;5034754;28;97897;-28
2023/01/23 08:58:47;;;;;;;2.10;1.67;;;;;;;1.95;98.17;103934.28;5033598;28;96560;-28
2023/01/23 09:01:15;;;;;;;3.45;2.33;;;;;;;1.95;98.01;103933.41;5033111;28;96893;-28
2023/01/23 09:03:41;;;;;;;3.38;2.22;;;;;;;1.98;98.07;103937.06;5033090;28;100976;-28
2023/01/23 09:06:07;;;;;;;3.33;2.75;;;;;;;2.02;97.89;103952.28;5034439;28;97334;-28
2023/01/23 09:08:33;;;;;;;2.67;1.75;;;;;;;2.04;97.89;103955.91;5033312;28;96593;-28
2023/01/23 09:11:03;;;;;;;4.03;3.03;;;;;;;2.02;98.04;103951.41;5034835;28;96690;-29
2023/01/23 09:13:29;;;;;;;2.70;2.22;;;;;;;2.06;97.84;103948.84;5032948;28;101309;-28
2023/01/23 09:15:54;;;;;;;6.03;2.22;;;;;;;2.07;98.07;103949.72;5034168;28;97313;-29
2023/01/23 09:18:21;;;;;;;4.43;2.10;;;;;;;2.08;98.61;103951.56;5034295;27;96456;-28
2023/01/23 09:20:47;;;;;;;3.90;2.75;;;;;;;2.11;98.12;103943.59;5033157;28;96832;-29
2023/01/23 09:23:12;;;;;;;2.40;1.98;;;;;;;2.16;98.37;103943.72;5033446;28;98141;-29
2023/01/23 09:25:38;;;;;;;1.52;1.35;;;;;;;2.18;98.25;103961.59;5034434;28;97402;-28
2023/01/23 09:28:03;;;;;;;3.25;1.70;;;;;;;2.18;97.99;103958.03;5034807;27;96441;-28
2023/01/23 09:30:28;;;;;;;3.63;2.58;;;;;;;2.20;98.31;103949.16;5034267;28;96858;-28
2023/01/23 09:32:54;;;;;;;3.72;1.65;;;;;;;2.22;98.25;103952.78;5034204;27;99744;-28
2023/01/23 09:35:19;;;;;;;4.30;2.63;;;;;;;2.25;97.31;103957.31;5034675;28;97745;-28
2023/01/23 09:38:00;;;;;;;7.03;3.15;;;;;;;2.26;98.02;103954.63;5034661;27;96582;-29
2023/01/23 09:40:37;;;;;;;2.72;1.88;;;;;;;2.28;97.57;103955.59;5034270;28;97250;-28
2023/01/23 09:43:34;;;;;;;2.63;2.13;;;;;;;2.31;97.63;103966.38;5032273;28;101477;-29
2023/01/23 09:46:14;;;;;;;1.63;1.50;;;;;;;2.34;97.30;103968.22;5033623;28;99235;-30
2023/01/23 09:48:52;;;;;;;6.78;3.95;;;;;;;2.32;97.46;103970.84;5033015;28;96667;-28
2023/01/23 09:51:32;;;;;;;3.88;3.05;;;;;;;2.35;97.13;103975.38;5034381;27;96660;-29
2023/01/23 09:54:06;;;;;;;3.47;2.75;;;;;;;2.35;97.44;103970.00;5035995;28;100928;-28
2023/01/23 09:56:40;;;;;;;2.90;2.10;;;;;;;2.38;97.13;103970.06;5035816;28;100929;-29
2023/01/23 09:59:30;;;;;;;5.13;3.03;;;;;;;2.44;97.29;103972.00;5036237;28;96659;-28
2023/01/23 10:01:55;;;;;;;3.47;2.38;;;;;;;2.48;97.02;103968.50;5038037;28;96523;-28
2023/01/23 10:04:22;;;;;;;3.67;2.63;;;;;;;2.44;97.26;103969.34;5037324;27;97817;-28
2023/01/23 10:07:39;;;;;;;3.75;2.40;;;;;;;2.47;96.62;103972.97;5035680;28;100813;-28
2023/01/23 10:10:16;;;;;;;6.25;1.95;;;;;;;2.51;97.18;103976.63;5035582;28;96686;-28
2023/01/23 10:13:06;;;;;;;3.28;2.47;;;;;;;2.55;96.99;103973.13;5037578;28;96516;-29
2023/01/23 10:15:50;;;;;;;4.35;1.75;;;;;;;2.58;96.66;103973.22;5025552;28;101555;-29
2023/01/23 10:18:45;;;;;;;4.30;2.25;;;;;;;2.57;97.08;103970.50;5036998;28;97941;-28
2023/01/23 10:21:13;;;;;;;5.68;2.70;;;;;;;2.57;96.90;103955.34;5023559;27;96818;-28
2023/01/23 10:24:00;;;;;;;3.35;2.20;;;;;;;2.61;96.73;103959.00;5036470;28;96972;-28
2023/01/23 10:26:30;;;;;;;2.65;2.28;;;;;;;2.62;96.55;103948.34;5036720;28;99461;-28
2023/01/23 10:29:02;;;;;;;5.40;2.67;;;;;;;2.66;96.72;103946.63;5035763;28;100839;-28
2023/01/23 10:31:33;;;;;;;;;;;;;;;2.70;96.82;103945.81;5036019;28;96636;-30
2023/01/23 10:34:04;;;;;;;4.43;2.05;;;;;;;2.74;96.29;103947.66;5037266;28;96788;-28
2023/01/23 10:36:35;;;;;;;5.38;3.63;;;;;;;2.73;96.08;103940.53;5036523;28;97940;-29
2023/01/23 10:39:11;;;;;;;3.67;2.20;;;;;;;2.78;96.59;103935.28;5035204;28;101000;-28
2023/01/23 10:41:38;;;;;;;5.18;2.90;;;;;;;2.83;96.17;103939.84;5037036;27;96523;-29
2023/01/23 10:44:13;;;;;;;4.70;2.63;;;;;;;2.86;96.50;103945.28;5037031;28;96758;-28
2023/01/23 10:46:47;;;;;;;4.88;3.15;;;;;;;2.87;95.88;103933.69;5035257;28;100800;-28
2023/01/23 10:49:28;;;;;;;4.20;2.45;;;;;;;2.91;95.91;103937.34;5036335;28;99307;-28
2023/01/23 10:51:53;;;;;;;3.33;2.08;;;;;;;2.93;95.56;103936.50;5035359;28;96669;-28
2023/01/23 10:54:24;;;;;;;7.55;3.53;;;;;;;2.97;95.73;103942.81;5036895;28;97501;-28
2023/01/23 10:56:59;;;;;;;4.07;2.70;;;;;;;3.00;95.45;103942.84;5035010;28;100808;-29
2023/01/23 10:59:24;;;;;;;3.90;2.63;;;;;;;3.05;95.43;103948.31;5034985;28;98893;-29
2023/01/23 11:02:00;;;;;;;7.80;2.88;;;;;;;3.08;95.65;103954.63;5035760;27;96580;-28
2023/01/23 11:04:29;;;;;;;4.32;3.00;;;;;;;3.10;95.19;103957.31;5035703;27;96750;-28
2023/01/23 11:07:07;;;;;;;3.83;3.00;;;;;;;3.13;95.01;103947.59;5036152;27;99695;-28
2023/01/23 11:09:46;;;;;;;4.55;2.42;;;;;;;3.18;95.54;103951.25;5034780;28;100809;-28
2023/01/23 11:12:15;;;;;;;4.93;2.42;;;;;;;3.20;95.37;103943.25;5034998;28;96475;-29
2023/01/23 11:14:40;;;;;;;2.47;1.85;;;;;;;3.23;94.96;103947.78;5035061;28;97011;-28
2023/01/23 11:17:20;;;;;;;4.07;2.85;;;;;;;3.26;94.73;103942.47;5036109;28;99259;-28
2023/01/23 11:19:48;;;;;;;2.33;1.85;;;;;;;3.31;94.97;103944.38;5035047;28;101393;-29
2023/01/23 11:22:29;;;;;;;8.15;3.55;;;;;;;3.35;95.20;103940.88;5034522;28;96689;-28
2023/01/23 11:24:55;;;;;;;5.75;2.92;;;;;;;3.38;95.00;103945.38;5034373;28;97610;-28
2023/01/23 11:27:28;;;;;;;4.07;2.10;;;;;;;3.43;95.05;103937.41;5034097;28;100841;-28
2023/01/23 11:30:28;;;;;;;4.50;3.90;;;;;;;3.43;94.59;103941.00;5035801;28;99613;-28
2023/01/23 11:33:02;;;;;;;12.23;2.58;;;;;;;3.49;94.17;103954.50;5036265;28;96540;-29
2023/01/23 11:35:46;;;;;;;3.92;2.83;;;;;;;3.53;94.67;103948.34;5036241;28;96611;-29
2023/01/23 11:38:16;;;;;;;4.55;2.67;;;;;;;3.58;94.00;103943.97;5034284;28;100959;-28
2023/01/23 11:40:41;;;;;;;7.10;2.92;;;;;;;3.69;94.10;103930.72;5034365;28;100874;-30